Time;durP1;ratioP1;P1;durP2;ratioP2;P2;SDS_P1;SDS_P2;PMS_P1;PMS_P2;Temp;Humidity;BMP_temperature;BMP_pressure;BME280_temperature;BME280_humidity;BME280_pressure;Samples;Min_cycle;Max_cycle;Signal;HPM_P1;HPM_P2
2021/05/27 00:01:30;;;;;;;0.10;0.05;;;15.80;67.90;;;;;;4963491;28;20039;-82
2021/05/27 00:03:57;;;;;;;0.25;0.10;;;15.70;67.90;;;;;;4978338;28;20037;-81
2021/05/27 00:06:23;;;;;;;0.70;0.20;;;15.70;67.90;;;;;;4999976;28;20054;-81
2021/05/27 00:08:49;;;;;;;0.55;0.10;;;15.80;67.90;;;;;;4982069;28;20034;-81
2021/05/27 00:11:15;;;;;;;1.05;0.30;;;15.80;68.00;;;;;;4986481;28;20038;-82
2021/05/27 00:13:41;;;;;;;0.45;0.10;;;15.80;67.90;;;;;;4976300;28;20035;-82
2021/05/27 00:16:07;;;;;;;0.15;0.00;;;15.80;68.00;;;;;;4953765;28;20035;-82
2021/05/27 00:18:33;;;;;;;0.98;0.00;;;15.80;68.00;;;;;;4969963;28;20046;-80
2021/05/27 00:20:59;;;;;;;1.40;0.47;;;15.80;68.00;;;;;;4954378;29;20031;-81
2021/05/27 00:23:25;;;;;;;1.27;0.52;;;15.80;68.00;;;;;;4953548;29;20031;-81
2021/05/27 00:25:51;;;;;;;0.57;0.00;;;15.80;68.10;;;;;;4953532;28;20563;-80
2021/05/27 00:28:18;;;;;;;0.35;0.05;;;15.70;68.00;;;;;;4970028;28;20047;-81
2021/05/27 00:30:44;;;;;;;12.10;0.55;;;15.70;68.10;;;;;;4966280;28;20030;-80
2021/05/27 00:33:10;;;;;;;0.10;0.00;;;15.70;68.10;;;;;;4971760;28;20046;-81
2021/05/27 00:35:36;;;;;;;0.57;0.30;;;15.70;68.10;;;;;;4982399;28;20034;-81
2021/05/27 00:38:02;;;;;;;0.15;0.08;;;15.70;68.10;;;;;;4978166;28;20049;-81
2021/05/27 00:40:28;;;;;;;0.00;0.00;;;15.70;68.10;;;;;;4974136;28;20035;-81
2021/05/27 00:42:54;;;;;;;0.10;0.00;;;15.70;68.20;;;;;;4977566;28;20023;-81
2021/05/27 00:45:20;;;;;;;0.45;0.20;;;15.70;68.20;;;;;;4977353;28;20061;-80
2021/05/27 00:47:46;;;;;;;3.40;0.20;;;15.60;68.20;;;;;;4971891;28;20035;-81
2021/05/27 00:50:20;;;;;;;0.15;0.05;;;15.70;68.30;;;;;;4969271;28;20038;-81
2021/05/27 00:52:54;;;;;;;0.90;0.45;;;15.70;68.30;;;;;;4972752;28;20038;-81
2021/05/27 00:55:21;;;;;;;5.85;0.10;;;15.70;68.30;;;;;;4972749;28;20051;-81
2021/05/27 00:57:48;;;;;;;1.35;0.45;;;15.70;68.40;;;;;;4973879;28;20477;-81
2021/05/27 01:00:16;;;;;;;0.15;0.10;;;15.70;68.50;;;;;;4971921;28;20034;-81
2021/05/27 01:02:42;;;;;;;0.47;0.20;;;15.70;68.50;;;;;;4971944;28;20041;-77
2021/05/27 01:05:10;;;;;;;2.40;0.10;;;15.60;68.40;;;;;;4972053;28;20038;-79
2021/05/27 01:07:36;;;;;;;0.30;0.20;;;15.60;68.50;;;;;;4955911;28;20043;-80
2021/05/27 01:10:04;;;;;;;0.30;0.00;;;15.60;68.50;;;;;;4972208;28;20035;-81
2021/05/27 01:12:30;;;;;;;0.00;0.00;;;15.60;68.60;;;;;;4987724;28;20384;-81
2021/05/27 01:17:41;;;;;;;5.18;0.15;;;15.60;68.60;;;;;;4980207;28;20046;-80
2021/05/27 01:20:12;;;;;;;0.17;0.10;;;15.60;68.60;;;;;;4976344;28;20026;-81
2021/05/27 01:22:38;;;;;;;0.30;0.10;;;15.60;68.70;;;;;;4973601;28;20441;-79
2021/05/27 01:25:08;;;;;;;2.83;0.10;;;15.60;68.70;;;;;;4974456;28;20069;-79
2021/05/27 01:27:34;;;;;;;0.43;0.35;;;15.60;68.70;;;;;;4986207;28;20035;-81
2021/05/27 01:30:00;;;;;;;0.52;0.10;;;15.60;68.80;;;;;;4978959;28;20043;-81
2021/05/27 01:32:27;;;;;;;0.20;0.10;;;15.60;68.80;;;;;;4951807;28;20035;-81
2021/05/27 01:34:53;;;;;;;2.67;0.10;;;15.60;68.80;;;;;;4977406;28;20039;-80
2021/05/27 01:37:19;;;;;;;2.17;0.43;;;15.60;68.80;;;;;;4971675;28;20039;-81
2021/05/27 01:39:46;;;;;;;0.47;0.10;;;15.60;68.80;;;;;;4972990;28;20035;-81
2021/05/27 01:42:12;;;;;;;0.00;0.00;;;15.60;68.90;;;;;;4971384;28;20042;-81
2021/05/27 01:44:39;;;;;;;0.17;0.00;;;15.60;68.90;;;;;;4954194;28;20510;-81
2021/05/27 01:47:05;;;;;;;0.63;0.17;;;15.70;69.00;;;;;;4970561;28;20053;-80
2021/05/27 01:49:31;;;;;;;1.90;0.32;;;15.60;68.90;;;;;;4971389;28;20031;-81
2021/05/27 01:51:57;;;;;;;0.73;0.20;;;15.60;68.90;;;;;;4972986;28;20039;-81
2021/05/27 01:54:23;;;;;;;0.00;0.00;;;15.70;69.00;;;;;;4987405;28;20392;-81
2021/05/27 01:56:49;;;;;;;0.15;0.00;;;15.60;69.00;;;;;;4970975;28;20468;-81
2021/05/27 01:59:15;;;;;;;1.52;0.05;;;15.60;69.10;;;;;;4971294;28;20031;-82
2021/05/27 02:01:41;;;;;;;1.65;0.10;;;15.60;69.10;;;;;;4967798;28;20046;-81
2021/05/27 02:04:08;;;;;;;3.25;0.20;;;15.60;69.20;;;;;;4967073;28;20062;-81
2021/05/27 02:06:34;;;;;;;3.92;0.10;;;15.60;69.20;;;;;;4966233;28;20042;-80
2021/05/27 02:09:12;;;;;;;4.55;0.25;;;15.60;69.30;;;;;;4969635;28;20038;-80
2021/05/27 02:11:42;;;;;;;3.70;0.38;;;15.60;69.30;;;;;;4968381;28;20035;-80
2021/05/27 02:14:09;;;;;;;3.92;0.10;;;15.60;69.30;;;;;;4982386;28;20038;-81
2021/05/27 02:16:38;;;;;;;0.98;0.10;;;15.60;69.30;;;;;;4967116;28;20504;-81
2021/05/27 02:19:04;;;;;;;1.92;0.10;;;15.60;70.20;;;;;;5001179;28;20562;-78
2021/05/27 02:21:30;;;;;;;0.10;0.00;;;15.60;69.40;;;;;;4970208;28;20042;-81
2021/05/27 02:23:57;;;;;;;5.57;0.20;;;15.50;69.40;;;;;;4969328;28;20037;-81
2021/05/27 02:26:24;;;;;;;0.43;0.20;;;15.60;69.50;;;;;;4969226;28;20023;-82
2021/05/27 02:28:50;;;;;;;0.00;0.00;;;15.60;69.50;;;;;;4969426;28;20107;-81
2021/05/27 02:31:16;;;;;;;0.32;0.28;;;15.60;69.60;;;;;;4967177;28;20038;-81
2021/05/27 02:33:43;;;;;;;11.25;0.22;;;15.60;69.60;;;;;;4970290;28;20054;-81
2021/05/27 02:36:09;;;;;;;0.22;0.03;;;15.60;69.60;;;;;;4982751;28;20099;-81
2021/05/27 02:38:36;;;;;;;3.30;0.30;;;15.60;69.60;;;;;;4971414;28;20050;-81
2021/05/27 02:41:03;;;;;;;7.78;0.20;;;15.60;69.70;;;;;;4975950;28;20038;-81
2021/05/27 02:43:30;;;;;;;0.60;0.20;;;15.60;69.70;;;;;;4976163;28;20491;-81
2021/05/27 02:45:56;;;;;;;0.55;0.08;;;15.60;69.80;;;;;;4980370;28;20049;-81
2021/05/27 02:48:22;;;;;;;0.43;0.10;;;15.50;69.70;;;;;;4979172;28;20046;-82
2021/05/27 02:50:48;;;;;;;1.95;0.30;;;15.50;69.80;;;;;;4980303;28;20488;-81
2021/05/27 02:53:14;;;;;;;0.30;0.30;;;15.50;69.80;;;;;;4978984;28;20506;-82
2021/05/27 02:55:40;;;;;;;0.40;0.17;;;15.50;69.90;;;;;;4969590;28;20045;-81
2021/05/27 02:58:06;;;;;;;0.30;0.20;;;15.50;70.00;;;;;;4961193;28;20051;-82
2021/05/27 03:00:33;;;;;;;0.20;0.10;;;15.50;70.00;;;;;;4988054;28;20061;-82
2021/05/27 03:02:59;;;;;;;8.30;0.22;;;15.50;70.10;;;;;;4987271;28;20061;-82
2021/05/27 03:05:25;;;;;;;0.20;0.10;;;15.50;70.10;;;;;;4987375;28;20469;-81
2021/05/27 03:07:51;;;;;;;0.43;0.10;;;15.50;70.20;;;;;;4977616;28;20038;-83
2021/05/27 03:10:17;;;;;;;0.15;0.00;;;15.50;70.30;;;;;;4984574;28;20058;-81
2021/05/27 03:12:43;;;;;;;0.10;0.10;;;15.40;70.20;;;;;;5011860;28;20392;-83
2021/05/27 03:15:10;;;;;;;20.27;0.38;;;15.40;70.30;;;;;;4977487;28;20034;-82
2021/05/27 03:17:36;;;;;;;1.33;0.20;;;15.50;70.40;;;;;;4972627;28;20038;-82
2021/05/27 03:20:03;;;;;;;0.00;0.00;;;15.50;70.50;;;;;;4974193;28;20501;-83
2021/05/27 03:22:29;;;;;;;0.15;0.05;;;15.50;70.60;;;;;;4974541;28;20464;-83
2021/05/27 03:24:55;;;;;;;0.00;0.00;;;15.50;70.60;;;;;;4974013;28;20054;-83
2021/05/27 03:27:22;;;;;;;0.52;0.30;;;15.50;70.70;;;;;;4975217;28;20488;-83
2021/05/27 03:29:48;;;;;;;0.85;0.10;;;15.50;70.70;;;;;;4974513;28;20099;-82
2021/05/27 03:32:14;;;;;;;7.28;0.30;;;15.40;70.60;;;;;;4977957;28;20041;-83
2021/05/27 03:34:40;;;;;;;0.40;0.08;;;15.50;70.80;;;;;;4977126;28;20031;-82
2021/05/27 03:37:06;;;;;;;0.00;0.00;;;15.40;70.80;;;;;;4961075;28;20480;-83
2021/05/27 03:39:32;;;;;;;3.55;0.57;;;15.40;70.90;;;;;;4985302;28;20037;-83
2021/05/27 03:41:58;;;;;;;0.73;0.50;;;15.40;71.00;;;;;;4981186;28;20042;-83
2021/05/27 03:44:24;;;;;;;0.22;0.10;;;15.40;71.10;;;;;;4977603;28;20043;-81
2021/05/27 03:46:51;;;;;;;0.47;0.20;;;15.30;71.10;;;;;;4973571;28;20035;-83
2021/05/27 03:49:17;;;;;;;0.03;0.00;;;15.30;71.20;;;;;;4973389;28;20035;-82
2021/05/27 03:51:43;;;;;;;0.60;0.20;;;15.30;71.30;;;;;;4990129;28;20045;-83
2021/05/27 03:54:09;;;;;;;0.20;0.10;;;15.30;71.30;;;;;;4973414;28;20031;-82
2021/05/27 03:56:35;;;;;;;0.95;0.40;;;15.30;71.40;;;;;;4974486;28;20507;-83
2021/05/27 04:01:45;;;;;;;3.60;0.45;;;15.30;71.50;;;;;;4981935;28;20042;-82
2021/05/27 04:07:11;;;;;;;0.20;0.00;;;15.30;71.60;;;;;;5017536;28;20018;-83
2021/05/27 04:09:38;;;;;;;;;;;15.30;71.60;;;;;;4984789;28;20037;-83
2021/05/27 04:17:34;;;;;;;0.10;0.00;;;15.20;71.40;;;;;;4985797;28;20046;-83
2021/05/27 04:20:04;;;;;;;1.60;0.30;;;15.30;71.60;;;;;;4973008;28;20039;-83
2021/05/27 04:22:30;;;;;;;0.35;0.15;;;15.30;71.70;;;;;;4958510;28;20035;-83
2021/05/27 04:24:56;;;;;;;1.35;0.20;;;15.30;71.70;;;;;;4957177;28;20050;-83
2021/05/27 04:27:22;;;;;;;2.33;0.43;;;15.20;71.70;;;;;;4973575;28;20061;-82
2021/05/27 04:29:48;;;;;;;0.35;0.15;;;15.20;71.80;;;;;;4972810;28;20046;-83
2021/05/27 04:34:59;;;;;;;1.02;0.20;;;15.20;71.90;;;;;;4989067;28;20511;-82
2021/05/27 04:37:25;;;;;;;0.63;0.20;;;15.20;72.00;;;;;;4972870;28;20035;-81
2021/05/27 04:39:51;;;;;;;0.25;0.10;;;15.20;72.00;;;;;;4986327;28;20038;-83
2021/05/27 04:42:17;;;;;;;0.43;0.08;;;15.20;72.10;;;;;;4977192;28;20046;-83
2021/05/27 04:44:44;;;;;;;0.95;0.40;;;15.20;72.10;;;;;;4977027;28;20114;-83
2021/05/27 04:47:10;;;;;;;8.10;0.22;;;15.20;72.10;;;;;;4986912;28;20042;-83
2021/05/27 04:49:36;;;;;;;1.00;0.30;;;15.20;72.20;;;;;;4975044;28;20034;-83
2021/05/27 04:52:02;;;;;;;0.30;0.00;;;15.20;72.20;;;;;;4976257;28;20057;-81
2021/05/27 04:54:28;;;;;;;8.68;0.10;;;15.20;72.30;;;;;;5009775;28;20031;-83
2021/05/27 04:56:54;;;;;;;6.43;0.32;;;15.10;72.30;;;;;;4975483;28;20047;-81
2021/05/27 04:59:20;;;;;;;0.55;0.20;;;15.10;72.50;;;;;;4976547;28;20077;-83
2021/05/27 05:01:47;;;;;;;0.57;0.10;;;15.10;72.50;;;;;;4970918;28;20042;-83
2021/05/27 05:04:13;;;;;;;0.10;0.00;;;15.10;72.60;;;;;;4973399;28;20031;-83
2021/05/27 05:06:39;;;;;;;1.27;0.03;;;15.10;72.60;;;;;;4973320;28;20038;-82
2021/05/27 05:09:05;;;;;;;0.30;0.08;;;15.10;72.60;;;;;;4970731;28;20034;-81
2021/05/27 05:11:31;;;;;;;0.70;0.55;;;15.10;72.70;;;;;;4979352;28;20045;-82
2021/05/27 05:13:57;;;;;;;0.30;0.10;;;15.10;72.70;;;;;;4973124;28;20034;-82
2021/05/27 05:16:23;;;;;;;0.35;0.13;;;15.10;72.70;;;;;;4976207;28;20038;-83
2021/05/27 05:18:51;;;;;;;0.10;0.00;;;15.10;72.80;;;;;;4987730;28;20046;-84
2021/05/27 05:21:17;;;;;;;0.20;0.00;;;15.10;72.70;;;;;;4976653;28;20031;-83
2021/05/27 05:23:44;;;;;;;1.42;0.20;;;15.10;72.80;;;;;;4977285;28;20035;-83
2021/05/27 05:26:11;;;;;;;0.25;0.00;;;15.10;72.80;;;;;;4977760;28;20475;-83
2021/05/27 05:28:37;;;;;;;0.65;0.00;;;15.10;72.80;;;;;;4974410;28;20031;-83
2021/05/27 05:31:03;;;;;;;0.00;0.00;;;15.10;72.90;;;;;;4975874;28;20030;-83
2021/05/27 05:33:29;;;;;;;0.43;0.10;;;15.00;72.90;;;;;;4953243;28;20047;-83
2021/05/27 05:35:55;;;;;;;0.10;0.00;;;15.00;72.90;;;;;;4984322;28;20034;-83
2021/05/27 05:38:21;;;;;;;3.53;0.17;;;15.00;73.00;;;;;;4987529;28;20571;-83
2021/05/27 05:40:48;;;;;;;0.10;0.00;;;15.00;73.00;;;;;;4971733;28;20499;-83
2021/05/27 05:43:14;;;;;;;0.00;0.00;;;15.10;73.10;;;;;;4955757;28;20046;-83
2021/05/27 05:45:40;;;;;;;0.50;0.20;;;15.10;73.10;;;;;;4987839;28;20420;-83
2021/05/27 05:48:08;;;;;;;0.10;0.00;;;15.10;73.00;;;;;;4987643;28;20049;-83
2021/05/27 05:50:49;;;;;;;0.00;0.00;;;15.20;73.10;;;;;;4973065;28;20027;-83
2021/05/27 05:53:19;;;;;;;0.20;0.10;;;15.20;73.30;;;;;;4972788;28;20047;-83
2021/05/27 05:55:46;;;;;;;0.43;0.05;;;15.20;72.90;;;;;;4971814;28;20509;-82
2021/05/27 05:58:12;;;;;;;0.00;0.00;;;15.20;73.00;;;;;;4971472;28;20392;-83
2021/05/27 06:00:38;;;;;;;0.20;0.20;;;15.30;73.10;;;;;;4985657;28;20050;-83
2021/05/27 06:03:04;;;;;;;0.00;0.00;;;15.30;73.00;;;;;;4972538;28;20035;-83
2021/05/27 06:05:31;;;;;;;0.47;0.25;;;15.40;72.90;;;;;;4971615;28;20031;-83
2021/05/27 06:07:57;;;;;;;0.00;0.00;;;15.60;72.70;;;;;;4972605;28;20057;-84
2021/05/27 06:10:24;;;;;;;0.17;0.17;;;15.70;72.50;;;;;;4971666;28;20027;-85
2021/05/27 06:12:51;;;;;;;0.05;0.00;;;15.90;72.30;;;;;;4972295;28;20035;-86
2021/05/27 06:15:21;;;;;;;0.00;0.00;;;16.20;72.00;;;;;;4955920;28;20042;-84
2021/05/27 06:17:51;;;;;;;0.00;0.00;;;16.50;71.40;;;;;;4959090;28;20038;-85
2021/05/27 06:20:20;;;;;;;0.00;0.00;;;16.80;70.90;;;;;;4975347;28;20285;-86
2021/05/27 06:22:46;;;;;;;0.40;0.00;;;17.00;70.50;;;;;;4974942;28;20027;-83
2021/05/27 06:25:13;;;;;;;0.00;0.00;;;17.00;70.40;;;;;;4975373;28;20031;-84
2021/05/27 06:27:39;;;;;;;0.10;0.00;;;16.90;70.60;;;;;;4990829;28;20400;-83
2021/05/27 06:30:06;;;;;;;0.05;0.00;;;16.80;70.80;;;;;;4976422;28;20038;-83
2021/05/27 06:32:34;;;;;;;0.00;0.00;;;16.70;71.00;;;;;;4971832;28;20031;-84
2021/05/27 06:35:02;;;;;;;0.28;0.10;;;16.70;72.00;;;;;;4972452;28;20404;-82
2021/05/27 06:37:28;;;;;;;0.00;0.00;;;16.70;71.20;;;;;;4980982;28;20034;-84
2021/05/27 06:39:54;;;;;;;0.47;0.08;;;16.80;71.10;;;;;;4975495;28;20420;-85
2021/05/27 06:42:20;;;;;;;0.20;0.00;;;16.80;71.10;;;;;;4976030;28;20039;-83
2021/05/27 06:44:46;;;;;;;0.22;0.00;;;16.70;71.20;;;;;;4977201;28;20046;-84
2021/05/27 06:47:12;;;;;;;0.00;0.00;;;16.60;71.40;;;;;;4975295;28;20031;-80
2021/05/27 06:49:39;;;;;;;0.00;0.00;;;16.50;71.50;;;;;;4960651;28;20428;-80
2021/05/27 06:52:05;;;;;;;0.10;0.00;;;16.50;71.60;;;;;;4978683;28;20030;-83
2021/05/27 06:54:31;;;;;;;0.40;0.15;;;16.50;71.60;;;;;;4982885;28;20031;-83
2021/05/27 06:56:57;;;;;;;0.00;0.00;;;16.50;71.70;;;;;;4989047;28;20498;-83
2021/05/27 06:59:23;;;;;;;0.00;0.00;;;16.40;71.80;;;;;;4989182;28;20065;-82
2021/05/27 07:01:49;;;;;;;0.00;0.00;;;16.40;71.90;;;;;;4978021;28;20034;-83
2021/05/27 07:04:16;;;;;;;0.15;0.00;;;16.40;72.00;;;;;;4976315;28;20031;-83
2021/05/27 07:06:42;;;;;;;13.80;0.10;;;16.40;72.00;;;;;;4974209;28;20465;-82
2021/05/27 07:09:08;;;;;;;0.10;0.00;;;16.40;72.00;;;;;;4974702;28;20053;-82
2021/05/27 07:11:34;;;;;;;0.00;0.00;;;16.40;72.00;;;;;;4973773;28;20035;-80
2021/05/27 07:14:00;;;;;;;0.28;0.10;;;16.40;71.90;;;;;;4974582;28;20046;-81
2021/05/27 07:16:29;;;;;;;0.05;0.00;;;16.40;71.80;;;;;;4974009;28;20057;-82
2021/05/27 07:18:55;;;;;;;0.00;0.00;;;16.40;71.80;;;;;;4970600;28;20496;-81
2021/05/27 07:21:21;;;;;;;0.00;0.00;;;16.40;71.70;;;;;;4970569;28;20050;-81
2021/05/27 07:23:47;;;;;;;0.00;0.00;;;16.40;71.70;;;;;;4974510;28;20041;-84
2021/05/27 07:26:14;;;;;;;0.03;0.00;;;16.40;71.70;;;;;;4973013;28;20502;-86
2021/05/27 07:28:40;;;;;;;0.00;0.00;;;16.40;71.60;;;;;;4974440;28;20039;-84
2021/05/27 07:31:07;;;;;;;0.00;0.00;;;16.50;71.80;;;;;;4982286;28;20038;-84
2021/05/27 07:33:33;;;;;;;0.00;0.00;;;16.50;71.60;;;;;;4979902;28;20121;-84
2021/05/27 07:35:59;;;;;;;0.13;0.00;;;16.40;71.60;;;;;;4979036;28;20035;-83
2021/05/27 07:38:25;;;;;;;0.17;0.05;;;16.50;71.60;;;;;;4978334;28;20397;-84
2021/05/27 07:40:51;;;;;;;0.10;0.00;;;16.50;71.60;;;;;;4977134;28;20031;-84
2021/05/27 07:43:18;;;;;;;0.00;0.00;;;16.50;71.50;;;;;;4976192;28;20050;-83
2021/05/27 07:45:44;;;;;;;0.00;0.00;;;16.50;71.30;;;;;;4978264;28;20061;-84
2021/05/27 07:48:10;;;;;;;0.00;0.00;;;16.60;71.30;;;;;;4975060;28;20034;-83
2021/05/27 07:50:36;;;;;;;0.03;0.00;;;16.60;71.10;;;;;;4972647;28;20049;-82
2021/05/27 07:53:02;;;;;;;0.00;0.00;;;16.70;70.90;;;;;;4973985;28;20037;-82
2021/05/27 07:55:28;;;;;;;0.00;0.00;;;16.70;70.80;;;;;;4974684;28;20037;-83
2021/05/27 07:57:54;;;;;;;0.00;0.00;;;16.80;70.80;;;;;;4971200;28;20388;-83
2021/05/27 08:00:21;;;;;;;0.00;0.00;;;16.80;70.70;;;;;;4975619;28;20056;-83
2021/05/27 08:02:47;;;;;;;0.00;0.00;;;16.90;70.70;;;;;;4983627;28;20042;-84
2021/05/27 08:05:14;;;;;;;0.10;0.00;;;17.10;70.60;;;;;;4977277;28;20037;-82
2021/05/27 08:07:40;;;;;;;0.00;0.00;;;17.40;70.10;;;;;;4958277;28;20408;-81
2021/05/27 08:10:08;;;;;;;0.10;0.00;;;17.90;69.20;;;;;;4960192;28;20491;-82
2021/05/27 08:12:34;;;;;;;0.00;0.00;;;18.50;68.20;;;;;;4978080;28;20049;-83
2021/05/27 08:15:00;;;;;;;0.00;0.00;;;18.80;67.20;;;;;;4977555;28;20058;-83
2021/05/27 08:17:26;;;;;;;0.60;0.10;;;18.90;67.00;;;;;;4972606;28;20480;-83
2021/05/27 08:19:52;;;;;;;0.03;0.00;;;18.70;67.00;;;;;;4974098;28;20043;-83
2021/05/27 08:22:18;;;;;;;2.67;0.28;;;18.50;67.50;;;;;;4972631;28;20046;-83
2021/05/27 08:24:44;;;;;;;1.05;0.00;;;18.30;67.80;;;;;;4973569;28;20054;-83
2021/05/27 08:27:12;;;;;;;0.00;0.00;;;18.10;68.20;;;;;;4973293;28;20034;-83
2021/05/27 08:29:38;;;;;;;0.10;0.00;;;18.00;69.30;;;;;;4973071;28;20034;-83
2021/05/27 08:32:07;;;;;;;0.00;0.00;;;17.90;68.40;;;;;;4985441;28;20045;-83
2021/05/27 08:34:33;;;;;;;0.10;0.00;;;17.90;68.70;;;;;;4956378;28;20050;-82
2021/05/27 08:37:00;;;;;;;0.00;0.00;;;17.90;68.70;;;;;;4976055;28;20145;-82
2021/05/27 08:39:26;;;;;;;0.00;0.00;;;17.90;68.50;;;;;;4993778;28;20043;-81
2021/05/27 08:41:52;;;;;;;0.28;0.00;;;18.00;68.50;;;;;;5009629;28;20369;-82
2021/05/27 08:44:18;;;;;;;0.28;0.00;;;18.30;67.90;;;;;;4977734;28;20049;-83
2021/05/27 08:46:46;;;;;;;0.10;0.08;;;18.60;68.00;;;;;;4973225;28;20041;-83
2021/05/27 08:49:13;;;;;;;0.10;0.00;;;18.80;66.30;;;;;;4972682;28;20046;-82
2021/05/27 08:51:39;;;;;;;0.00;0.00;;;19.00;66.00;;;;;;4972470;28;20042;-82
2021/05/27 08:54:05;;;;;;;0.05;0.00;;;19.20;65.10;;;;;;4971666;28;20035;-83
2021/05/27 08:56:32;;;;;;;0.00;0.00;;;19.30;64.90;;;;;;4956142;28;20038;-85
2021/05/27 08:58:58;;;;;;;0.00;0.00;;;19.40;64.80;;;;;;4968367;28;20042;-85
2021/05/27 09:01:24;;;;;;;0.10;0.00;;;19.40;64.70;;;;;;4985043;28;20527;-83
2021/05/27 09:03:51;;;;;;;0.00;0.00;;;19.40;64.80;;;;;;4983062;28;20050;-81
2021/05/27 09:06:17;;;;;;;0.57;0.10;;;19.40;64.50;;;;;;4963966;28;20041;-82
2021/05/27 09:08:44;;;;;;;0.20;0.00;;;19.40;64.60;;;;;;4965750;28;20051;-83
2021/05/27 09:11:14;;;;;;;0.30;0.00;;;19.50;64.60;;;;;;4969557;28;20388;-82
2021/05/27 09:13:51;;;;;;;0.00;0.00;;;19.50;64.50;;;;;;4967588;28;20043;-84
2021/05/27 09:16:18;;;;;;;0.00;0.00;;;19.50;64.30;;;;;;4983110;28;20042;-82
2021/05/27 09:18:44;;;;;;;0.20;0.03;;;19.50;64.20;;;;;;4985369;28;20055;-82
2021/05/27 09:21:15;;;;;;;0.17;0.00;;;19.40;64.70;;;;;;4963800;28;20042;-82
2021/05/27 09:23:48;;;;;;;1.55;0.20;;;19.20;64.50;;;;;;4956973;28;20046;-82
2021/05/27 09:26:15;;;;;;;0.00;0.00;;;19.20;64.70;;;;;;4966719;28;20050;-83
2021/05/27 09:28:42;;;;;;;0.10;0.00;;;19.20;64.50;;;;;;4981101;28;20027;-84
2021/05/27 09:31:13;;;;;;;0.10;0.00;;;19.30;64.50;;;;;;4961022;28;20054;-83
2021/05/27 09:33:46;;;;;;;0.20;0.10;;;19.40;65.00;;;;;;4967127;28;20062;-86
2021/05/27 09:36:16;;;;;;;0.00;0.00;;;19.70;63.90;;;;;;4950288;28;20050;-83
2021/05/27 09:38:44;;;;;;;0.10;0.00;;;20.00;63.10;;;;;;4969412;28;20050;-85
2021/05/27 09:41:20;;;;;;;0.05;0.00;;;20.20;62.60;;;;;;4984726;28;20035;-85
2021/05/27 09:43:51;;;;;;;0.20;0.10;;;20.10;62.20;;;;;;4968746;28;20042;-82
2021/05/27 09:46:17;;;;;;;0.00;0.00;;;20.00;62.10;;;;;;4983167;28;20047;-80
2021/05/27 09:48:44;;;;;;;0.00;0.00;;;19.80;62.50;;;;;;4970194;28;20050;-82
2021/05/27 09:51:11;;;;;;;0.00;0.00;;;19.60;62.80;;;;;;4961978;28;20523;-82
2021/05/27 09:53:38;;;;;;;0.20;0.00;;;19.70;63.00;;;;;;4954506;28;20049;-81
2021/05/27 09:56:05;;;;;;;0.38;0.13;;;19.80;62.90;;;;;;4968132;28;20054;-82
2021/05/27 09:58:31;;;;;;;0.38;0.00;;;19.80;62.70;;;;;;4958438;28;20034;-84
2021/05/27 10:00:57;;;;;;;0.00;0.00;;;19.90;62.50;;;;;;4975343;28;20046;-80
2021/05/27 10:03:41;;;;;;;0.08;0.00;;;20.00;62.30;;;;;;4968865;28;20107;-80
2021/05/27 10:06:11;;;;;;;0.10;0.00;;;20.10;62.20;;;;;;4984983;28;20519;-81
2021/05/27 10:08:50;;;;;;;0.00;0.00;;;20.30;61.90;;;;;;4979249;28;20045;-81
2021/05/27 10:11:17;;;;;;;0.60;0.20;;;20.40;61.50;;;;;;4973664;28;20031;-81
2021/05/27 10:13:43;;;;;;;0.10;0.00;;;20.50;61.30;;;;;;4973750;28;20039;-81
2021/05/27 10:16:27;;;;;;;0.70;0.10;;;20.60;61.00;;;;;;4981016;28;20035;-81
2021/05/27 10:18:54;;;;;;;0.00;0.00;;;20.70;60.50;;;;;;4987747;28;20043;-81
2021/05/27 10:21:21;;;;;;;0.30;0.25;;;20.90;60.10;;;;;;4975311;28;20034;-81
2021/05/27 10:23:47;;;;;;;0.20;0.10;;;21.20;59.60;;;;;;4988029;28;20038;-82
2021/05/27 10:26:13;;;;;;;0.10;0.00;;;21.40;59.00;;;;;;5004439;28;20034;-81
2021/05/27 10:28:48;;;;;;;0.00;0.00;;;21.30;58.70;;;;;;4988240;28;20043;-80
2021/05/27 10:31:20;;;;;;;0.00;0.00;;;21.20;59.00;;;;;;4984366;28;20045;-82
2021/05/27 10:33:46;;;;;;;0.10;0.00;;;21.20;59.20;;;;;;4989942;28;20050;-80
2021/05/27 10:36:13;;;;;;;0.00;0.00;;;21.30;59.20;;;;;;4985478;28;20400;-81
2021/05/27 10:38:42;;;;;;;0.00;0.00;;;21.60;58.90;;;;;;4963727;28;20039;-82
2021/05/27 10:41:13;;;;;;;0.00;0.00;;;22.00;58.50;;;;;;4969078;28;20046;-82
2021/05/27 10:44:04;;;;;;;0.00;0.00;;;22.40;57.80;;;;;;4983324;28;20023;-82
2021/05/27 10:46:33;;;;;;;;;;;22.50;57.40;;;;;;4968576;28;20042;-81
2021/05/27 10:48:59;;;;;;;0.00;0.00;;;22.60;57.30;;;;;;5003276;28;20283;-80
2021/05/27 10:54:07;;;;;;;0.00;0.00;;;22.40;57.30;;;;;;4976140;28;20491;-81
2021/05/27 10:56:34;;;;;;;0.47;0.10;;;22.40;57.00;;;;;;4979769;28;20050;-80
2021/05/27 10:59:00;;;;;;;0.00;0.00;;;22.50;56.90;;;;;;4982989;28;20412;-82
2021/05/27 11:01:34;;;;;;;0.03;0.00;;;22.50;56.90;;;;;;4975401;28;20038;-81
2021/05/27 11:04:04;;;;;;;0.35;0.03;;;22.80;56.80;;;;;;4985329;28;20022;-80
2021/05/27 11:06:40;;;;;;;0.40;0.00;;;23.10;56.20;;;;;;4991375;28;20034;-81
2021/05/27 11:09:24;;;;;;;0.00;0.00;;;23.40;55.70;;;;;;4975017;28;20042;-80
2021/05/27 11:12:12;;;;;;;0.22;0.10;;;23.40;55.60;;;;;;4975498;28;20069;-80
2021/05/27 11:15:05;;;;;;;0.00;0.00;;;23.40;55.60;;;;;;4974467;28;20034;-81
2021/05/27 11:17:31;;;;;;;0.10;0.10;;;23.50;55.50;;;;;;4950294;28;20027;-81
2021/05/27 11:20:10;;;;;;;0.47;0.08;;;23.40;55.40;;;;;;4984029;28;20395;-81
2021/05/27 11:25:15;;;;;;;0.00;0.00;;;23.00;55.80;;;;;;4975635;28;20038;-81
2021/05/27 11:27:44;;;;;;;0.00;0.00;;;22.80;55.90;;;;;;4972772;28;20038;-80
2021/05/27 11:30:30;;;;;;;0.22;0.00;;;22.70;55.90;;;;;;4974720;28;20035;-81
2021/05/27 11:33:04;;;;;;;0.63;0.00;;;22.50;56.00;;;;;;4981126;28;20034;-80
2021/05/27 11:35:42;;;;;;;0.10;0.00;;;22.60;55.90;;;;;;4977015;28;20027;-80
2021/05/27 11:38:10;;;;;;;0.17;0.00;;;22.60;55.50;;;;;;4979408;28;20037;-80
2021/05/27 11:40:41;;;;;;;0.00;0.00;;;22.70;55.50;;;;;;4975643;28;20047;-81
2021/05/27 11:43:07;;;;;;;0.15;0.00;;;22.70;55.50;;;;;;4976714;28;20499;-81
2021/05/27 11:45:48;;;;;;;0.00;0.00;;;22.70;55.20;;;;;;4986135;28;20046;-79
2021/05/27 11:51:17;;;;;;;0.00;0.00;;;22.60;54.90;;;;;;4978713;28;19910;-81
2021/05/27 11:53:52;;;;;;;0.22;0.00;;;22.50;54.70;;;;;;4981218;28;20061;-81
2021/05/27 11:56:47;;;;;;;0.00;0.00;;;22.20;55.00;;;;;;4985420;28;20041;-81
2021/05/27 11:59:13;;;;;;;0.00;0.00;;;22.10;55.00;;;;;;4977664;28;20034;-80
2021/05/27 12:01:41;;;;;;;0.00;0.00;;;22.00;54.90;;;;;;4972240;28;20050;-81
2021/05/27 12:04:10;;;;;;;0.10;0.00;;;21.90;55.10;;;;;;4972696;28;20029;-81
2021/05/27 12:06:43;;;;;;;0.08;0.00;;;21.80;54.90;;;;;;4989344;28;20031;-80
2021/05/27 12:09:13;;;;;;;0.17;0.00;;;21.90;55.00;;;;;;4988453;28;20039;-81
2021/05/27 12:11:39;;;;;;;0.43;0.05;;;22.00;54.80;;;;;;4971682;28;20027;-81
2021/05/27 12:14:07;;;;;;;0.30;0.00;;;22.20;54.50;;;;;;4972821;28;20380;-81
2021/05/27 12:16:34;;;;;;;0.10;0.00;;;22.30;53.90;;;;;;4980351;28;20542;-80
2021/05/27 12:19:08;;;;;;;0.10;0.00;;;22.30;53.80;;;;;;4980043;28;20105;-81
2021/05/27 12:21:34;;;;;;;0.00;0.00;;;22.40;53.90;;;;;;5012571;28;20034;-80
2021/05/27 12:24:01;;;;;;;0.00;0.00;;;22.30;53.80;;;;;;4979041;28;20474;-81
2021/05/27 12:26:27;;;;;;;0.47;0.00;;;22.20;53.90;;;;;;4981657;28;20289;-80
2021/05/27 12:28:53;;;;;;;0.00;0.00;;;22.00;54.00;;;;;;4975595;28;20361;-81
2021/05/27 12:31:20;;;;;;;0.05;0.00;;;21.90;54.20;;;;;;4972996;28;20043;-81
2021/05/27 12:33:46;;;;;;;1.80;0.00;;;21.80;54.20;;;;;;4973933;28;20022;-81
2021/05/27 12:36:12;;;;;;;0.38;0.10;;;21.80;54.10;;;;;;4971734;28;20050;-81
2021/05/27 12:38:47;;;;;;;0.10;0.00;;;21.80;54.10;;;;;;4971938;28;20029;-80
2021/05/27 12:41:14;;;;;;;0.10;0.05;;;21.80;54.20;;;;;;4970774;28;20057;-81
2021/05/27 12:43:46;;;;;;;0.20;0.10;;;21.80;53.90;;;;;;4988085;28;20473;-81
2021/05/27 12:46:12;;;;;;;0.00;0.00;;;21.80;53.90;;;;;;4970779;28;20496;-80
2021/05/27 12:48:51;;;;;;;0.00;0.00;;;21.90;53.80;;;;;;4974120;28;20035;-80
2021/05/27 12:51:18;;;;;;;0.00;0.00;;;21.80;53.70;;;;;;4971961;28;20030;-80
2021/05/27 12:53:47;;;;;;;0.00;0.00;;;21.80;53.70;;;;;;4970303;28;20030;-81
2021/05/27 12:56:21;;;;;;;0.00;0.00;;;21.80;54.30;;;;;;4973389;28;20027;-81
2021/05/27 12:59:15;;;;;;;0.00;0.00;;;21.80;53.70;;;;;;4971560;28;20035;-80
2021/05/27 13:01:43;;;;;;;0.17;0.00;;;21.80;53.60;;;;;;4957076;28;20111;-81
2021/05/27 13:04:11;;;;;;;0.00;0.00;;;21.80;53.60;;;;;;4973058;28;20031;-79
2021/05/27 13:06:38;;;;;;;0.05;0.00;;;21.80;53.50;;;;;;4988340;28;20039;-81
2021/05/27 13:09:05;;;;;;;0.00;0.00;;;21.80;53.40;;;;;;4971316;28;20511;-81
2021/05/27 13:11:32;;;;;;;0.00;0.00;;;21.90;53.40;;;;;;4972673;28;20022;-82
2021/05/27 13:13:59;;;;;;;0.00;0.00;;;22.00;53.20;;;;;;4971059;28;20031;-81
2021/05/27 13:16:49;;;;;;;0.00;0.00;;;22.10;53.00;;;;;;4954665;28;20391;-80